ASA70 PAJN-PASI
Flight info
| Callsign | ASA70 |
|---|---|
| Flight time | 0h 22m |
| Altitude | 16000 |
| Route | JNU7 SSR CLUCK |
| Aircraft | B737/M-SDE2E3FGHIRWXY/LB1 |
Departure
| Time | 2026-05-04 03:06 |
|---|---|
| Airport | Juneau International Airport (PAJN) |
Arrival
| Time | 2026-05-04 03:29 |
|---|---|
| Airport | Sitka Rocky Gutierrez Airport (PASI) |
| Time | Latitude | Longitude | Altitude | Speed | Heading |
|---|---|---|---|---|---|
| 2026-05-04 02:47 | 58.35831 | -134.58371 | -5 ft | 0 kts | 18° |
| 2026-05-04 02:57 | 58.35831 | -134.58372 | -5 ft | 0 kts | 18° |
| 2026-05-04 02:58 | 58.35829 | -134.58372 | -5 ft | 1 kts | 18° |
| 2026-05-04 02:58 | 58.35815 | -134.58382 | -6 ft | 2 kts | 18° |
| 2026-05-04 02:58 | 58.35801 | -134.58391 | -6 ft | 2 kts | 18° |
| 2026-05-04 02:58 | 58.35788 | -134.58403 | -6 ft | 2 kts | 59° |
| 2026-05-04 02:59 | 58.35786 | -134.58424 | -7 ft | 0 kts | 99° |
| 2026-05-04 02:59 | 58.35788 | -134.58437 | -7 ft | 1 kts | 105° |
| 2026-05-04 02:59 | 58.35788 | -134.58440 | -7 ft | 0 kts | 105° |
| 2026-05-04 03:02 | 58.35788 | -134.58435 | -7 ft | 2 kts | 105° |
| 2026-05-04 03:02 | 58.35775 | -134.58356 | -6 ft | 6 kts | 115° |
| 2026-05-04 03:02 | 58.35710 | -134.58279 | -6 ft | 16 kts | 142° |
| 2026-05-04 03:02 | 58.35663 | -134.58029 | -4 ft | 23 kts | 103° |
| 2026-05-04 03:03 | 58.35621 | -134.57724 | -5 ft | 24 kts | 104° |
| 2026-05-04 03:03 | 58.35580 | -134.57414 | -6 ft | 24 kts | 104° |
| 2026-05-04 03:03 | 58.35534 | -134.57095 | -10 ft | 25 kts | 105° |
| 2026-05-04 03:03 | 58.35489 | -134.56763 | -12 ft | 26 kts | 102° |
| 2026-05-04 03:04 | 58.35445 | -134.56450 | -12 ft | 22 kts | 105° |
| 2026-05-04 03:04 | 58.35404 | -134.56160 | -12 ft | 22 kts | 104° |
| 2026-05-04 03:04 | 58.35362 | -134.55859 | -16 ft | 24 kts | 104° |
| 2026-05-04 03:04 | 58.35320 | -134.55554 | -16 ft | 23 kts | 104° |
| 2026-05-04 03:05 | 58.35269 | -134.55307 | -16 ft | 14 kts | 147° |
| 2026-05-04 03:05 | 58.35182 | -134.55351 | -16 ft | 13 kts | 250° |
| 2026-05-04 03:05 | 58.35202 | -134.55543 | -16 ft | 21 kts | 285° |
| 2026-05-04 03:05 | 58.35327 | -134.56430 | -12 ft | 114 kts | 284° |
| 2026-05-04 03:06 | 58.35585 | -134.58225 | 425 ft | 154 kts | 283° |
| 2026-05-04 03:06 | 58.35832 | -134.60284 | 1167 ft | 171 kts | 280° |
| 2026-05-04 03:06 | 58.36008 | -134.62640 | 1899 ft | 192 kts | 273° |
| 2026-05-04 03:06 | 58.35993 | -134.65257 | 2639 ft | 211 kts | 268° |
| 2026-05-04 03:07 | 58.35955 | -134.68147 | 3390 ft | 230 kts | 268° |
| 2026-05-04 03:07 | 58.35943 | -134.71329 | 4151 ft | 250 kts | 269° |
| 2026-05-04 03:07 | 58.35961 | -134.74660 | 5025 ft | 263 kts | 270° |
| 2026-05-04 03:07 | 58.35983 | -134.78101 | 6292 ft | 261 kts | 270° |
| 2026-05-04 03:08 | 58.36004 | -134.81471 | 7567 ft | 256 kts | 270° |
| 2026-05-04 03:08 | 58.36022 | -134.84798 | 8680 ft | 257 kts | 270° |
| 2026-05-04 03:08 | 58.35809 | -134.88119 | 9695 ft | 261 kts | 256° |
| 2026-05-04 03:08 | 58.34950 | -134.91213 | 10479 ft | 278 kts | 234° |
| 2026-05-04 03:09 | 58.33587 | -134.94023 | 10977 ft | 302 kts | 230° |
| 2026-05-04 03:09 | 58.32100 | -134.96995 | 11420 ft | 323 kts | 231° |
| 2026-05-04 03:09 | 58.30523 | -135.00182 | 12064 ft | 338 kts | 231° |
| 2026-05-04 03:09 | 58.28902 | -135.03456 | 12824 ft | 346 kts | 231° |
| 2026-05-04 03:10 | 58.27261 | -135.06770 | 13656 ft | 351 kts | 232° |
| 2026-05-04 03:10 | 58.25586 | -135.10152 | 14489 ft | 356 kts | 232° |
| 2026-05-04 03:10 | 58.23895 | -135.13560 | 15401 ft | 357 kts | 231° |
| 2026-05-04 03:10 | 58.22185 | -135.17001 | 15916 ft | 361 kts | 231° |
| 2026-05-04 03:11 | 58.20455 | -135.20465 | 15958 ft | 365 kts | 230° |
| 2026-05-04 03:11 | 58.18573 | -135.23640 | 15912 ft | 365 kts | 222° |
| 2026-05-04 03:11 | 58.16368 | -135.26115 | 15893 ft | 370 kts | 210° |
| 2026-05-04 03:11 | 58.13923 | -135.27696 | 15920 ft | 375 kts | 201° |
| 2026-05-04 03:12 | 58.11402 | -135.28931 | 15914 ft | 378 kts | 199° |
| 2026-05-04 03:12 | 58.08844 | -135.30092 | 15903 ft | 377 kts | 199° |
| 2026-05-04 03:12 | 58.06311 | -135.31230 | 15922 ft | 375 kts | 199° |
| 2026-05-04 03:12 | 58.03765 | -135.32385 | 15889 ft | 376 kts | 199° |
| 2026-05-04 03:13 | 58.01245 | -135.33536 | 15902 ft | 374 kts | 199° |
| 2026-05-04 03:13 | 57.98719 | -135.34692 | 15926 ft | 375 kts | 200° |
| 2026-05-04 03:13 | 57.96153 | -135.35875 | 15891 ft | 384 kts | 200° |
| 2026-05-04 03:13 | 57.93595 | -135.37045 | 15585 ft | 379 kts | 200° |
| 2026-05-04 03:14 | 57.91070 | -135.38191 | 15039 ft | 372 kts | 200° |
| 2026-05-04 03:14 | 57.88558 | -135.39328 | 14437 ft | 371 kts | 200° |
| 2026-05-04 03:14 | 57.86041 | -135.40483 | 13823 ft | 375 kts | 200° |
| 2026-05-04 03:14 | 57.83517 | -135.41638 | 13164 ft | 371 kts | 200° |
| 2026-05-04 03:15 | 57.81038 | -135.42767 | 12502 ft | 367 kts | 200° |
| 2026-05-04 03:15 | 57.78597 | -135.43875 | 11872 ft | 363 kts | 200° |
| 2026-05-04 03:15 | 57.76142 | -135.44991 | 11229 ft | 359 kts | 200° |
| 2026-05-04 03:15 | 57.73754 | -135.46071 | 10770 ft | 349 kts | 200° |
| 2026-05-04 03:16 | 57.71474 | -135.47098 | 10572 ft | 334 kts | 200° |
| 2026-05-04 03:16 | 57.69283 | -135.48082 | 10446 ft | 317 kts | 200° |
| 2026-05-04 03:16 | 57.67191 | -135.49023 | 10318 ft | 302 kts | 201° |
| 2026-05-04 03:16 | 57.65185 | -135.49930 | 10175 ft | 289 kts | 201° |
| 2026-05-04 03:17 | 57.63290 | -135.50787 | 9984 ft | 279 kts | 201° |
| 2026-05-04 03:17 | 57.61423 | -135.51636 | 9626 ft | 276 kts | 201° |
| 2026-05-04 03:17 | 57.59558 | -135.52483 | 9261 ft | 274 kts | 201° |
| 2026-05-04 03:17 | 57.57715 | -135.53314 | 8910 ft | 272 kts | 201° |
| 2026-05-04 03:18 | 57.55909 | -135.54126 | 8574 ft | 269 kts | 201° |
| 2026-05-04 03:18 | 57.54099 | -135.54939 | 8231 ft | 266 kts | 201° |
| 2026-05-04 03:18 | 57.52305 | -135.55742 | 7891 ft | 263 kts | 201° |
| 2026-05-04 03:18 | 57.50541 | -135.56532 | 7564 ft | 261 kts | 201° |
| 2026-05-04 03:19 | 57.48783 | -135.57323 | 7239 ft | 267 kts | 200° |
| 2026-05-04 03:19 | 57.46978 | -135.58131 | 6884 ft | 267 kts | 200° |
| 2026-05-04 03:19 | 57.45183 | -135.58929 | 6554 ft | 264 kts | 200° |
| 2026-05-04 03:19 | 57.43411 | -135.59717 | 6313 ft | 257 kts | 199° |
| 2026-05-04 03:20 | 57.41712 | -135.60467 | 6230 ft | 245 kts | 200° |
| 2026-05-04 03:20 | 57.40105 | -135.61179 | 6160 ft | 233 kts | 200° |
| 2026-05-04 03:20 | 57.38564 | -135.61864 | 6095 ft | 222 kts | 201° |
| 2026-05-04 03:20 | 57.37052 | -135.62543 | 6022 ft | 226 kts | 200° |
| 2026-05-04 03:21 | 57.35542 | -135.63188 | 5930 ft | 220 kts | 197° |
| 2026-05-04 03:21 | 57.34041 | -135.63576 | 5714 ft | 219 kts | 193° |
| 2026-05-04 03:21 | 57.32522 | -135.63875 | 5457 ft | 219 kts | 192° |
| 2026-05-04 03:21 | 57.31025 | -135.64178 | 5228 ft | 217 kts | 192° |
| 2026-05-04 03:22 | 57.29525 | -135.64494 | 4999 ft | 215 kts | 192° |
| 2026-05-04 03:22 | 57.28049 | -135.64809 | 4776 ft | 214 kts | 191° |
| 2026-05-04 03:22 | 57.26575 | -135.65123 | 4546 ft | 212 kts | 191° |
| 2026-05-04 03:22 | 57.25114 | -135.65436 | 4324 ft | 211 kts | 189° |
| 2026-05-04 03:23 | 57.23674 | -135.65744 | 4111 ft | 209 kts | 190° |
| 2026-05-04 03:23 | 57.22230 | -135.65988 | 3902 ft | 207 kts | 181° |
| 2026-05-04 03:23 | 57.20890 | -135.65294 | 3812 ft | 198 kts | 150° |
| 2026-05-04 03:23 | 57.19859 | -135.63632 | 3563 ft | 196 kts | 134° |
| 2026-05-04 03:24 | 57.18912 | -135.61882 | 3350 ft | 191 kts | 135° |
| 2026-05-04 03:24 | 57.17974 | -135.60176 | 3141 ft | 187 kts | 135° |
| 2026-05-04 03:24 | 57.17069 | -135.58530 | 2956 ft | 178 kts | 135° |
| 2026-05-04 03:24 | 57.16227 | -135.56999 | 2772 ft | 164 kts | 135° |
| 2026-05-04 03:25 | 57.15426 | -135.55543 | 2629 ft | 157 kts | 135° |
| 2026-05-04 03:25 | 57.14653 | -135.54143 | 2479 ft | 156 kts | 135° |
| 2026-05-04 03:25 | 57.13891 | -135.52757 | 2376 ft | 156 kts | 134° |
| 2026-05-04 03:25 | 57.13099 | -135.51323 | 2091 ft | 158 kts | 134° |
| 2026-05-04 03:26 | 57.12338 | -135.49944 | 1880 ft | 154 kts | 134° |
| 2026-05-04 03:26 | 57.11589 | -135.48584 | 1689 ft | 147 kts | 134° |
| 2026-05-04 03:26 | 57.10879 | -135.47301 | 1463 ft | 139 kts | 134° |
| 2026-05-04 03:26 | 57.10193 | -135.46059 | 1308 ft | 137 kts | 134° |
| 2026-05-04 03:27 | 57.09514 | -135.44829 | 1166 ft | 142 kts | 135° |
| 2026-05-04 03:27 | 57.08819 | -135.43573 | 924 ft | 136 kts | 135° |
| 2026-05-04 03:27 | 57.08158 | -135.42377 | 765 ft | 135 kts | 135° |
| 2026-05-04 03:27 | 57.07485 | -135.41162 | 576 ft | 135 kts | 135° |
| 2026-05-04 03:28 | 57.06821 | -135.39961 | 424 ft | 134 kts | 134° |
| 2026-05-04 03:28 | 57.06158 | -135.38754 | 263 ft | 135 kts | 135° |
| 2026-05-04 03:28 | 57.05483 | -135.37544 | 75 ft | 134 kts | 135° |
| 2026-05-04 03:28 | 57.04849 | -135.36421 | 10 ft | 107 kts | 134° |
| 2026-05-04 03:29 | 57.04475 | -135.35741 | 3 ft | 48 kts | 135° |
| 2026-05-04 03:29 | 57.04316 | -135.35452 | 3 ft | 27 kts | 135° |
| 2026-05-04 03:29 | 57.04190 | -135.35225 | 3 ft | 23 kts | 135° |
| 2026-05-04 03:29 | 57.04076 | -135.35014 | 3 ft | 19 kts | 130° |
| 2026-05-04 03:30 | 57.04036 | -135.34924 | 3 ft | 2 kts | 178° |
| 2026-05-04 03:30 | 57.04035 | -135.34956 | 3 ft | 5 kts | 310° |
| 2026-05-04 03:30 | 57.04108 | -135.35084 | 3 ft | 25 kts | 317° |
| 2026-05-04 03:30 | 57.04263 | -135.35356 | 3 ft | 31 kts | 316° |
| 2026-05-04 03:31 | 57.04420 | -135.35638 | 3 ft | 31 kts | 316° |
| 2026-05-04 03:31 | 57.04575 | -135.35915 | 5 ft | 30 kts | 316° |
| 2026-05-04 03:31 | 57.04720 | -135.36182 | 7 ft | 28 kts | 316° |
| 2026-05-04 03:31 | 57.04839 | -135.36316 | 10 ft | 18 kts | 356° |
| 2026-05-04 03:32 | 57.04963 | -135.36351 | 10 ft | 18 kts | 329° |
| 2026-05-04 03:32 | 57.05055 | -135.36504 | 11 ft | 17 kts | 315° |
| 2026-05-04 03:32 | 57.05138 | -135.36647 | 10 ft | 13 kts | 323° |
| 2026-05-04 03:32 | 57.05204 | -135.36693 | 10 ft | 6 kts | 358° |
| 2026-05-04 03:33 | 57.05226 | -135.36659 | 11 ft | 3 kts | 71° |
| 2026-05-04 03:33 | 57.05231 | -135.36629 | 12 ft | 1 kts | 75° |
| 2026-05-04 03:33 | 57.05232 | -135.36616 | 12 ft | 0 kts | 76° |